sensor_id;sensor_type;location;lat;lon;timestamp;P1;durP1;ratioP1;P2;durP2;ratioP2
47519;SDS011;33252;48.122;11.538;2022-10-18T00:00:42;5.07;;;3.40;;
47519;SDS011;33252;48.122;11.538;2022-10-18T00:03:08;7.38;;;4.72;;
47519;SDS011;33252;48.122;11.538;2022-10-18T00:05:34;8.32;;;3.33;;
47519;SDS011;33252;48.122;11.538;2022-10-18T00:08:00;4.80;;;3.08;;
47519;SDS011;33252;48.122;11.538;2022-10-18T00:10:25;9.05;;;3.53;;
47519;SDS011;33252;48.122;11.538;2022-10-18T00:12:52;5.82;;;2.95;;
47519;SDS011;33252;48.122;11.538;2022-10-18T00:15:17;3.92;;;2.90;;
47519;SDS011;33252;48.122;11.538;2022-10-18T00:17:43;6.88;;;3.47;;
47519;SDS011;33252;48.122;11.538;2022-10-18T00:20:09;4.30;;;3.05;;
47519;SDS011;33252;48.122;11.538;2022-10-18T00:22:39;7.25;;;3.80;;
47519;SDS011;33252;48.122;11.538;2022-10-18T00:25:06;4.60;;;2.65;;
47519;SDS011;33252;48.122;11.538;2022-10-18T00:27:33;5.63;;;3.10;;
47519;SDS011;33252;48.122;11.538;2022-10-18T00:29:59;5.68;;;3.38;;
47519;SDS011;33252;48.122;11.538;2022-10-18T00:32:25;3.55;;;2.85;;
47519;SDS011;33252;48.122;11.538;2022-10-18T00:34:51;5.72;;;2.97;;
47519;SDS011;33252;48.122;11.538;2022-10-18T00:37:17;5.50;;;2.83;;
47519;SDS011;33252;48.122;11.538;2022-10-18T00:39:43;6.07;;;3.10;;
47519;SDS011;33252;48.122;11.538;2022-10-18T00:42:18;5.13;;;3.03;;
47519;SDS011;33252;48.122;11.538;2022-10-18T00:47:15;8.20;;;3.65;;
47519;SDS011;33252;48.122;11.538;2022-10-18T00:49:49;6.82;;;3.40;;
47519;SDS011;33252;48.122;11.538;2022-10-18T00:52:21;5.70;;;3.05;;
47519;SDS011;33252;48.122;11.538;2022-10-18T00:54:52;6.70;;;3.35;;
47519;SDS011;33252;48.122;11.538;2022-10-18T00:57:19;8.18;;;3.80;;
47519;SDS011;33252;48.122;11.538;2022-10-18T00:59:45;6.68;;;3.10;;
47519;SDS011;33252;48.122;11.538;2022-10-18T01:02:12;6.85;;;3.22;;
47519;SDS011;33252;48.122;11.538;2022-10-18T01:04:42;7.22;;;3.72;;
47519;SDS011;33252;48.122;11.538;2022-10-18T01:18:46;5.00;;;3.83;;
47519;SDS011;33252;48.122;11.538;2022-10-18T01:32:26;5.95;;;3.78;;
47519;SDS011;33252;48.122;11.538;2022-10-18T01:34:59;5.13;;;3.30;;
47519;SDS011;33252;48.122;11.538;2022-10-18T01:37:28;5.22;;;3.58;;
47519;SDS011;33252;48.122;11.538;2022-10-18T01:39:55;4.88;;;3.50;;
47519;SDS011;33252;48.122;11.538;2022-10-18T01:42:23;4.45;;;3.38;;
47519;SDS011;33252;48.122;11.538;2022-10-18T01:44:50;7.80;;;3.35;;
47519;SDS011;33252;48.122;11.538;2022-10-18T01:47:17;7.00;;;3.67;;
47519;SDS011;33252;48.122;11.538;2022-10-18T01:49:44;4.65;;;3.22;;
47519;SDS011;33252;48.122;11.538;2022-10-18T01:52:13;8.95;;;3.40;;
47519;SDS011;33252;48.122;11.538;2022-10-18T01:54:41;4.70;;;3.22;;
47519;SDS011;33252;48.122;11.538;2022-10-18T01:57:33;5.55;;;3.83;;
47519;SDS011;33252;48.122;11.538;2022-10-18T02:00:12;8.02;;;3.30;;
47519;SDS011;33252;48.122;11.538;2022-10-18T02:08:00;6.57;;;3.50;;
47519;SDS011;33252;48.122;11.538;2022-10-18T02:10:49;5.68;;;3.58;;
47519;SDS011;33252;48.122;11.538;2022-10-18T02:13:23;6.03;;;3.63;;
47519;SDS011;33252;48.122;11.538;2022-10-18T02:15:55;7.28;;;3.40;;
47519;SDS011;33252;48.122;11.538;2022-10-18T02:18:27;6.20;;;3.83;;
47519;SDS011;33252;48.122;11.538;2022-10-18T02:20:57;9.40;;;3.65;;
47519;SDS011;33252;48.122;11.538;2022-10-18T02:23:25;3.80;;;3.13;;
47519;SDS011;33252;48.122;11.538;2022-10-18T02:25:51;4.13;;;3.08;;
47519;SDS011;33252;48.122;11.538;2022-10-18T02:28:17;6.00;;;2.90;;
47519;SDS011;33252;48.122;11.538;2022-10-18T02:31:27;5.43;;;2.70;;
47519;SDS011;33252;48.122;11.538;2022-10-18T02:33:57;5.55;;;3.20;;
47519;SDS011;33252;48.122;11.538;2022-10-18T02:36:28;4.45;;;2.88;;
47519;SDS011;33252;48.122;11.538;2022-10-18T02:39:00;10.20;;;3.70;;
47519;SDS011;33252;48.122;11.538;2022-10-18T02:41:30;7.03;;;2.70;;
47519;SDS011;33252;48.122;11.538;2022-10-18T02:43:56;4.93;;;2.80;;
47519;SDS011;33252;48.122;11.538;2022-10-18T02:46:22;4.63;;;3.35;;
47519;SDS011;33252;48.122;11.538;2022-10-18T02:48:48;6.35;;;3.03;;
47519;SDS011;33252;48.122;11.538;2022-10-18T02:51:14;5.22;;;2.58;;
47519;SDS011;33252;48.122;11.538;2022-10-18T02:53:40;4.70;;;2.97;;
47519;SDS011;33252;48.122;11.538;2022-10-18T02:56:05;4.35;;;3.13;;
47519;SDS011;33252;48.122;11.538;2022-10-18T02:58:31;6.00;;;2.97;;
47519;SDS011;33252;48.122;11.538;2022-10-18T03:00:57;3.88;;;2.70;;
47519;SDS011;33252;48.122;11.538;2022-10-18T03:03:23;5.70;;;2.30;;
47519;SDS011;33252;48.122;11.538;2022-10-18T03:05:49;5.90;;;3.42;;
47519;SDS011;33252;48.122;11.538;2022-10-18T03:08:16;6.20;;;2.83;;
47519;SDS011;33252;48.122;11.538;2022-10-18T03:10:42;4.28;;;2.90;;
47519;SDS011;33252;48.122;11.538;2022-10-18T03:13:09;4.75;;;2.78;;
47519;SDS011;33252;48.122;11.538;2022-10-18T03:15:35;5.40;;;3.45;;
47519;SDS011;33252;48.122;11.538;2022-10-18T03:18:01;5.97;;;2.88;;
47519;SDS011;33252;48.122;11.538;2022-10-18T03:20:26;5.53;;;3.08;;
47519;SDS011;33252;48.122;11.538;2022-10-18T03:22:52;7.18;;;2.83;;
47519;SDS011;33252;48.122;11.538;2022-10-18T03:25:18;5.40;;;3.42;;
47519;SDS011;33252;48.122;11.538;2022-10-18T03:27:43;4.82;;;2.45;;
47519;SDS011;33252;48.122;11.538;2022-10-18T03:30:09;5.38;;;2.42;;
47519;SDS011;33252;48.122;11.538;2022-10-18T03:32:38;7.13;;;3.00;;
47519;SDS011;33252;48.122;11.538;2022-10-18T03:35:05;5.30;;;2.85;;
47519;SDS011;33252;48.122;11.538;2022-10-18T03:37:31;6.35;;;2.17;;
47519;SDS011;33252;48.122;11.538;2022-10-18T03:39:57;5.30;;;2.60;;
47519;SDS011;33252;48.122;11.538;2022-10-18T03:42:23;4.45;;;2.00;;
47519;SDS011;33252;48.122;11.538;2022-10-18T03:44:49;4.32;;;2.00;;
47519;SDS011;33252;48.122;11.538;2022-10-18T03:47:14;4.82;;;2.85;;
47519;SDS011;33252;48.122;11.538;2022-10-18T03:49:40;3.65;;;2.10;;
47519;SDS011;33252;48.122;11.538;2022-10-18T03:52:05;6.30;;;2.60;;
47519;SDS011;33252;48.122;11.538;2022-10-18T03:54:31;5.43;;;3.13;;
47519;SDS011;33252;48.122;11.538;2022-10-18T03:56:57;5.03;;;2.40;;
47519;SDS011;33252;48.122;11.538;2022-10-18T03:59:22;3.20;;;2.00;;
47519;SDS011;33252;48.122;11.538;2022-10-18T04:01:48;3.42;;;2.42;;
47519;SDS011;33252;48.122;11.538;2022-10-18T04:04:14;3.13;;;2.35;;
47519;SDS011;33252;48.122;11.538;2022-10-18T04:06:40;4.00;;;2.33;;
47519;SDS011;33252;48.122;11.538;2022-10-18T04:09:06;3.95;;;2.67;;
47519;SDS011;33252;48.122;11.538;2022-10-18T04:11:32;6.53;;;2.55;;
47519;SDS011;33252;48.122;11.538;2022-10-18T04:13:58;3.75;;;2.50;;
47519;SDS011;33252;48.122;11.538;2022-10-18T04:16:23;4.95;;;2.40;;
47519;SDS011;33252;48.122;11.538;2022-10-18T04:18:49;5.38;;;2.38;;
47519;SDS011;33252;48.122;11.538;2022-10-18T04:21:15;4.45;;;2.58;;
47519;SDS011;33252;48.122;11.538;2022-10-18T04:23:41;5.40;;;2.95;;
47519;SDS011;33252;48.122;11.538;2022-10-18T04:26:06;8.10;;;3.58;;
47519;SDS011;33252;48.122;11.538;2022-10-18T04:28:33;4.78;;;2.88;;
47519;SDS011;33252;48.122;11.538;2022-10-18T04:30:58;4.85;;;2.53;;
47519;SDS011;33252;48.122;11.538;2022-10-18T04:33:24;5.93;;;3.00;;
47519;SDS011;33252;48.122;11.538;2022-10-18T04:35:50;5.32;;;2.78;;
47519;SDS011;33252;48.122;11.538;2022-10-18T04:38:17;4.05;;;2.25;;
47519;SDS011;33252;48.122;11.538;2022-10-18T04:40:44;6.07;;;3.15;;
47519;SDS011;33252;48.122;11.538;2022-10-18T04:43:10;5.82;;;2.95;;
47519;SDS011;33252;48.122;11.538;2022-10-18T04:45:35;5.20;;;3.10;;
47519;SDS011;33252;48.122;11.538;2022-10-18T04:48:01;5.43;;;3.00;;
47519;SDS011;33252;48.122;11.538;2022-10-18T04:50:27;6.68;;;3.33;;
47519;SDS011;33252;48.122;11.538;2022-10-18T04:52:53;5.07;;;2.95;;
47519;SDS011;33252;48.122;11.538;2022-10-18T04:55:19;4.10;;;2.72;;
47519;SDS011;33252;48.122;11.538;2022-10-18T04:57:44;4.63;;;3.30;;
47519;SDS011;33252;48.122;11.538;2022-10-18T05:00:10;4.28;;;2.60;;
47519;SDS011;33252;48.122;11.538;2022-10-18T05:02:36;8.75;;;3.17;;
47519;SDS011;33252;48.122;11.538;2022-10-18T05:05:02;6.45;;;2.65;;
47519;SDS011;33252;48.122;11.538;2022-10-18T05:07:28;7.32;;;3.05;;
47519;SDS011;33252;48.122;11.538;2022-10-18T05:09:54;4.38;;;2.90;;
47519;SDS011;33252;48.122;11.538;2022-10-18T05:12:19;4.55;;;2.70;;
47519;SDS011;33252;48.122;11.538;2022-10-18T05:14:46;7.43;;;3.00;;
47519;SDS011;33252;48.122;11.538;2022-10-18T05:17:12;4.60;;;2.80;;
47519;SDS011;33252;48.122;11.538;2022-10-18T05:19:38;4.07;;;2.97;;
47519;SDS011;33252;48.122;11.538;2022-10-18T05:22:03;6.95;;;3.42;;
47519;SDS011;33252;48.122;11.538;2022-10-18T05:24:29;4.43;;;2.67;;
47519;SDS011;33252;48.122;11.538;2022-10-18T05:26:54;4.90;;;2.90;;
47519;SDS011;33252;48.122;11.538;2022-10-18T05:29:21;5.13;;;3.20;;
47519;SDS011;33252;48.122;11.538;2022-10-18T05:31:47;4.95;;;2.75;;
47519;SDS011;33252;48.122;11.538;2022-10-18T05:34:13;6.78;;;3.22;;
47519;SDS011;33252;48.122;11.538;2022-10-18T05:36:39;7.38;;;2.92;;
47519;SDS011;33252;48.122;11.538;2022-10-18T05:39:04;7.43;;;2.95;;
47519;SDS011;33252;48.122;11.538;2022-10-18T05:41:30;7.53;;;3.72;;
47519;SDS011;33252;48.122;11.538;2022-10-18T05:43:56;6.15;;;3.55;;
47519;SDS011;33252;48.122;11.538;2022-10-18T05:46:21;7.57;;;3.17;;
47519;SDS011;33252;48.122;11.538;2022-10-18T05:48:50;6.60;;;3.42;;
47519;SDS011;33252;48.122;11.538;2022-10-18T05:51:16;5.55;;;3.05;;
47519;SDS011;33252;48.122;11.538;2022-10-18T05:53:43;8.55;;;3.78;;
47519;SDS011;33252;48.122;11.538;2022-10-18T05:56:09;7.18;;;3.70;;
47519;SDS011;33252;48.122;11.538;2022-10-18T05:58:38;7.03;;;4.03;;
47519;SDS011;33252;48.122;11.538;2022-10-18T06:01:05;4.60;;;3.45;;
47519;SDS011;33252;48.122;11.538;2022-10-18T06:03:31;5.57;;;3.25;;
47519;SDS011;33252;48.122;11.538;2022-10-18T06:05:59;4.28;;;2.80;;
47519;SDS011;33252;48.122;11.538;2022-10-18T06:08:24;6.75;;;3.13;;
47519;SDS011;33252;48.122;11.538;2022-10-18T06:10:50;5.20;;;2.65;;
47519;SDS011;33252;48.122;11.538;2022-10-18T06:13:16;4.90;;;2.75;;
47519;SDS011;33252;48.122;11.538;2022-10-18T06:15:41;6.50;;;3.42;;
47519;SDS011;33252;48.122;11.538;2022-10-18T06:18:07;5.90;;;3.20;;
47519;SDS011;33252;48.122;11.538;2022-10-18T06:20:32;4.93;;;2.83;;
47519;SDS011;33252;48.122;11.538;2022-10-18T06:22:58;4.80;;;2.35;;
47519;SDS011;33252;48.122;11.538;2022-10-18T06:25:24;5.28;;;2.63;;
47519;SDS011;33252;48.122;11.538;2022-10-18T06:27:49;8.20;;;3.15;;
47519;SDS011;33252;48.122;11.538;2022-10-18T06:30:15;7.90;;;3.28;;
47519;SDS011;33252;48.122;11.538;2022-10-18T06:32:41;4.68;;;3.33;;
47519;SDS011;33252;48.122;11.538;2022-10-18T06:35:06;5.95;;;3.95;;
47519;SDS011;33252;48.122;11.538;2022-10-18T06:37:32;3.10;;;2.80;;
47519;SDS011;33252;48.122;11.538;2022-10-18T06:39:59;10.50;;;3.28;;
47519;SDS011;33252;48.122;11.538;2022-10-18T06:42:24;4.82;;;2.70;;
47519;SDS011;33252;48.122;11.538;2022-10-18T06:44:50;5.75;;;2.75;;
47519;SDS011;33252;48.122;11.538;2022-10-18T06:47:16;8.32;;;3.38;;
47519;SDS011;33252;48.122;11.538;2022-10-18T06:49:41;5.38;;;3.10;;
47519;SDS011;33252;48.122;11.538;2022-10-18T06:52:07;6.82;;;3.13;;
47519;SDS011;33252;48.122;11.538;2022-10-18T06:54:33;4.22;;;3.00;;
47519;SDS011;33252;48.122;11.538;2022-10-18T06:56:58;3.53;;;2.70;;
47519;SDS011;33252;48.122;11.538;2022-10-18T06:59:26;6.80;;;3.10;;
47519;SDS011;33252;48.122;11.538;2022-10-18T07:01:52;4.75;;;2.47;;
47519;SDS011;33252;48.122;11.538;2022-10-18T07:04:18;5.82;;;3.20;;
47519;SDS011;33252;48.122;11.538;2022-10-18T07:06:44;3.78;;;2.40;;
47519;SDS011;33252;48.122;11.538;2022-10-18T07:09:09;5.70;;;2.50;;
47519;SDS011;33252;48.122;11.538;2022-10-18T07:11:35;5.30;;;2.40;;
47519;SDS011;33252;48.122;11.538;2022-10-18T07:14:01;6.40;;;2.90;;
47519;SDS011;33252;48.122;11.538;2022-10-18T07:16:28;3.33;;;2.35;;
47519;SDS011;33252;48.122;11.538;2022-10-18T07:18:55;4.32;;;2.90;;
47519;SDS011;33252;48.122;11.538;2022-10-18T07:21:21;5.90;;;2.33;;
47519;SDS011;33252;48.122;11.538;2022-10-18T07:23:48;5.65;;;2.70;;
47519;SDS011;33252;48.122;11.538;2022-10-18T07:26:18;5.60;;;2.60;;
47519;SDS011;33252;48.122;11.538;2022-10-18T07:28:49;5.15;;;2.85;;
47519;SDS011;33252;48.122;11.538;2022-10-18T07:31:20;4.90;;;2.72;;
47519;SDS011;33252;48.122;11.538;2022-10-18T07:33:46;5.93;;;2.25;;
47519;SDS011;33252;48.122;11.538;2022-10-18T07:36:12;7.43;;;3.03;;
47519;SDS011;33252;48.122;11.538;2022-10-18T07:38:38;4.40;;;2.50;;
47519;SDS011;33252;48.122;11.538;2022-10-18T07:41:05;4.47;;;2.40;;
47519;SDS011;33252;48.122;11.538;2022-10-18T07:43:32;4.95;;;2.58;;
47519;SDS011;33252;48.122;11.538;2022-10-18T07:45:59;5.25;;;2.92;;
47519;SDS011;33252;48.122;11.538;2022-10-18T07:48:26;7.00;;;3.03;;
47519;SDS011;33252;48.122;11.538;2022-10-18T07:50:52;6.80;;;2.70;;
47519;SDS011;33252;48.122;11.538;2022-10-18T07:53:18;5.20;;;2.58;;
47519;SDS011;33252;48.122;11.538;2022-10-18T07:55:44;5.38;;;2.75;;
47519;SDS011;33252;48.122;11.538;2022-10-18T07:58:10;4.65;;;3.38;;
47519;SDS011;33252;48.122;11.538;2022-10-18T08:00:36;5.47;;;2.67;;
47519;SDS011;33252;48.122;11.538;2022-10-18T08:03:01;7.20;;;2.65;;
47519;SDS011;33252;48.122;11.538;2022-10-18T08:05:27;4.13;;;2.65;;
47519;SDS011;33252;48.122;11.538;2022-10-18T08:07:54;5.90;;;3.35;;
47519;SDS011;33252;48.122;11.538;2022-10-18T08:10:20;6.45;;;2.58;;
47519;SDS011;33252;48.122;11.538;2022-10-18T08:12:46;5.45;;;2.83;;
47519;SDS011;33252;48.122;11.538;2022-10-18T08:15:12;4.95;;;2.35;;
47519;SDS011;33252;48.122;11.538;2022-10-18T08:17:38;5.43;;;2.80;;
47519;SDS011;33252;48.122;11.538;2022-10-18T08:20:04;7.70;;;2.55;;
47519;SDS011;33252;48.122;11.538;2022-10-18T08:22:30;6.82;;;2.83;;
47519;SDS011;33252;48.122;11.538;2022-10-18T08:24:56;5.45;;;2.85;;
47519;SDS011;33252;48.122;11.538;2022-10-18T08:27:22;3.78;;;2.08;;
47519;SDS011;33252;48.122;11.538;2022-10-18T08:29:49;4.82;;;2.45;;
47519;SDS011;33252;48.122;11.538;2022-10-18T08:32:15;4.95;;;2.42;;
47519;SDS011;33252;48.122;11.538;2022-10-18T08:34:41;6.35;;;2.67;;
47519;SDS011;33252;48.122;11.538;2022-10-18T08:37:07;5.10;;;2.72;;
47519;SDS011;33252;48.122;11.538;2022-10-18T08:39:32;8.23;;;2.45;;
47519;SDS011;33252;48.122;11.538;2022-10-18T08:44:48;6.57;;;2.90;;
47519;SDS011;33252;48.122;11.538;2022-10-18T08:47:16;4.47;;;2.78;;
47519;SDS011;33252;48.122;11.538;2022-10-18T08:52:28;5.85;;;3.10;;
47519;SDS011;33252;48.122;11.538;2022-10-18T08:58:11;4.32;;;3.15;;
47519;SDS011;33252;48.122;11.538;2022-10-18T09:01:02;6.03;;;2.80;;
47519;SDS011;33252;48.122;11.538;2022-10-18T09:19:53;3.45;;;2.60;;
47519;SDS011;33252;48.122;11.538;2022-10-18T09:22:38;7.53;;;2.92;;
47519;SDS011;33252;48.122;11.538;2022-10-18T09:28:02;4.20;;;3.20;;
47519;SDS011;33252;48.122;11.538;2022-10-18T09:35:56;7.85;;;2.97;;
47519;SDS011;33252;48.122;11.538;2022-10-18T09:38:30;6.85;;;3.13;;
47519;SDS011;33252;48.122;11.538;2022-10-18T09:41:08;4.90;;;2.90;;
47519;SDS011;33252;48.122;11.538;2022-10-18T09:43:53;4.45;;;2.78;;
47519;SDS011;33252;48.122;11.538;2022-10-18T09:46:20;4.85;;;2.78;;
47519;SDS011;33252;48.122;11.538;2022-10-18T09:48:55;5.78;;;3.60;;
47519;SDS011;33252;48.122;11.538;2022-10-18T09:51:28;6.88;;;2.88;;
47519;SDS011;33252;48.122;11.538;2022-10-18T09:59:40;8.05;;;2.92;;
47519;SDS011;33252;48.122;11.538;2022-10-18T10:02:14;4.50;;;3.22;;
47519;SDS011;33252;48.122;11.538;2022-10-18T10:04:41;5.85;;;3.38;;
47519;SDS011;33252;48.122;11.538;2022-10-18T10:07:10;5.10;;;2.58;;
47519;SDS011;33252;48.122;11.538;2022-10-18T10:09:40;4.95;;;2.45;;
47519;SDS011;33252;48.122;11.538;2022-10-18T10:12:33;5.00;;;2.67;;
47519;SDS011;33252;48.122;11.538;2022-10-18T10:17:41;5.10;;;2.85;;
47519;SDS011;33252;48.122;11.538;2022-10-18T10:20:17;3.03;;;2.50;;
47519;SDS011;33252;48.122;11.538;2022-10-18T10:22:50;5.67;;;3.00;;
47519;SDS011;33252;48.122;11.538;2022-10-18T10:25:33;5.57;;;2.60;;
47519;SDS011;33252;48.122;11.538;2022-10-18T10:28:03;5.20;;;3.13;;
47519;SDS011;33252;48.122;11.538;2022-10-18T10:30:32;4.20;;;3.25;;
47519;SDS011;33252;48.122;11.538;2022-10-18T10:32:59;4.10;;;2.88;;
47519;SDS011;33252;48.122;11.538;2022-10-18T10:35:32;6.57;;;3.53;;
47519;SDS011;33252;48.122;11.538;2022-10-18T10:37:59;6.13;;;2.55;;
47519;SDS011;33252;48.122;11.538;2022-10-18T10:40:25;4.28;;;2.78;;
47519;SDS011;33252;48.122;11.538;2022-10-18T10:45:33;4.20;;;2.15;;
47519;SDS011;33252;48.122;11.538;2022-10-18T10:48:12;4.65;;;2.58;;
47519;SDS011;33252;48.122;11.538;2022-10-18T10:50:49;5.85;;;3.38;;
47519;SDS011;33252;48.122;11.538;2022-10-18T10:56:13;5.43;;;2.88;;
47519;SDS011;33252;48.122;11.538;2022-10-18T10:58:48;8.65;;;2.80;;
47519;SDS011;33252;48.122;11.538;2022-10-18T11:01:16;4.63;;;2.63;;
47519;SDS011;33252;48.122;11.538;2022-10-18T11:03:52;4.90;;;2.58;;
47519;SDS011;33252;48.122;11.538;2022-10-18T11:06:41;4.37;;;2.87;;
47519;SDS011;33252;48.122;11.538;2022-10-18T11:09:25;5.10;;;2.92;;
47519;SDS011;33252;48.122;11.538;2022-10-18T11:12:13;4.65;;;2.55;;
47519;SDS011;33252;48.122;11.538;2022-10-18T11:14:51;6.05;;;3.05;;
47519;SDS011;33252;48.122;11.538;2022-10-18T11:17:56;5.22;;;2.70;;
47519;SDS011;33252;48.122;11.538;2022-10-18T11:20:52;3.58;;;2.30;;
47519;SDS011;33252;48.122;11.538;2022-10-18T11:23:24;4.57;;;3.42;;
47519;SDS011;33252;48.122;11.538;2022-10-18T11:36:34;3.95;;;2.78;;
47519;SDS011;33252;48.122;11.538;2022-10-18T11:39:32;6.75;;;2.67;;
47519;SDS011;33252;48.122;11.538;2022-10-18T11:45:04;6.38;;;2.17;;
47519;SDS011;33252;48.122;11.538;2022-10-18T11:47:47;3.67;;;2.50;;
47519;SDS011;33252;48.122;11.538;2022-10-18T11:56:14;5.53;;;2.30;;
47519;SDS011;33252;48.122;11.538;2022-10-18T12:04:19;3.63;;;2.70;;
47519;SDS011;33252;48.122;11.538;2022-10-18T12:06:51;3.75;;;2.97;;
47519;SDS011;33252;48.122;11.538;2022-10-18T12:09:29;8.60;;;2.95;;
47519;SDS011;33252;48.122;11.538;2022-10-18T12:12:23;3.75;;;2.38;;
47519;SDS011;33252;48.122;11.538;2022-10-18T12:20:24;4.30;;;2.70;;
47519;SDS011;33252;48.122;11.538;2022-10-18T12:23:11;4.93;;;2.28;;
47519;SDS011;33252;48.122;11.538;2022-10-18T12:25:48;3.88;;;3.10;;
47519;SDS011;33252;48.122;11.538;2022-10-18T12:28:40;5.38;;;3.17;;
47519;SDS011;33252;48.122;11.538;2022-10-18T12:33:51;6.30;;;3.05;;
47519;SDS011;33252;48.122;11.538;2022-10-18T12:38:51;7.82;;;3.08;;
47519;SDS011;33252;48.122;11.538;2022-10-18T12:41:24;6.28;;;2.83;;
47519;SDS011;33252;48.122;11.538;2022-10-18T12:44:05;4.80;;;2.60;;
47519;SDS011;33252;48.122;11.538;2022-10-18T12:46:52;3.90;;;2.63;;
47519;SDS011;33252;48.122;11.538;2022-10-18T12:49:23;6.18;;;2.60;;
47519;SDS011;33252;48.122;11.538;2022-10-18T12:52:00;5.85;;;2.70;;
47519;SDS011;33252;48.122;11.538;2022-10-18T12:54:32;3.55;;;2.08;;
47519;SDS011;33252;48.122;11.538;2022-10-18T12:57:00;8.90;;;2.80;;
47519;SDS011;33252;48.122;11.538;2022-10-18T13:09:22;4.70;;;2.15;;
47519;SDS011;33252;48.122;11.538;2022-10-18T13:11:51;5.63;;;2.10;;
47519;SDS011;33252;48.122;11.538;2022-10-18T13:27:42;4.35;;;2.47;;
47519;SDS011;33252;48.122;11.538;2022-10-18T13:43:54;3.10;;;2.33;;
47519;SDS011;33252;48.122;11.538;2022-10-18T13:46:23;6.05;;;2.38;;
47519;SDS011;33252;48.122;11.538;2022-10-18T14:06:22;11.35;;;2.38;;
47519;SDS011;33252;48.122;11.538;2022-10-18T14:09:17;5.10;;;2.35;;
47519;SDS011;33252;48.122;11.538;2022-10-18T14:17:30;8.93;;;2.85;;
47519;SDS011;33252;48.122;11.538;2022-10-18T14:20:27;7.68;;;2.90;;
47519;SDS011;33252;48.122;11.538;2022-10-18T14:23:22;6.05;;;2.85;;
47519;SDS011;33252;48.122;11.538;2022-10-18T14:26:04;5.38;;;2.65;;
47519;SDS011;33252;48.122;11.538;2022-10-18T14:28:36;5.50;;;3.35;;
47519;SDS011;33252;48.122;11.538;2022-10-18T14:31:03;7.78;;;2.55;;
47519;SDS011;33252;48.122;11.538;2022-10-18T14:38:50;4.15;;;2.67;;
47519;SDS011;33252;48.122;11.538;2022-10-18T14:41:21;2.85;;;2.40;;
47519;SDS011;33252;48.122;11.538;2022-10-18T14:43:49;5.57;;;2.50;;
47519;SDS011;33252;48.122;11.538;2022-10-18T14:48:58;6.75;;;2.85;;
47519;SDS011;33252;48.122;11.538;2022-10-18T14:51:25;6.25;;;2.78;;
47519;SDS011;33252;48.122;11.538;2022-10-18T14:53:54;6.90;;;2.88;;
47519;SDS011;33252;48.122;11.538;2022-10-18T14:56:27;5.20;;;3.75;;
47519;SDS011;33252;48.122;11.538;2022-10-18T14:58:59;5.57;;;3.38;;
47519;SDS011;33252;48.122;11.538;2022-10-18T15:01:28;5.97;;;3.25;;
47519;SDS011;33252;48.122;11.538;2022-10-18T15:03:59;5.85;;;2.88;;
47519;SDS011;33252;48.122;11.538;2022-10-18T15:06:31;6.50;;;3.10;;
47519;SDS011;33252;48.122;11.538;2022-10-18T15:08:57;5.60;;;2.75;;
47519;SDS011;33252;48.122;11.538;2022-10-18T15:11:25;5.32;;;3.53;;
47519;SDS011;33252;48.122;11.538;2022-10-18T15:14:12;9.40;;;2.95;;
47519;SDS011;33252;48.122;11.538;2022-10-18T15:16:40;7.82;;;2.50;;
47519;SDS011;33252;48.122;11.538;2022-10-18T15:21:54;7.45;;;2.65;;
47519;SDS011;33252;48.122;11.538;2022-10-18T15:26:59;5.18;;;2.63;;
47519;SDS011;33252;48.122;11.538;2022-10-18T15:29:32;4.35;;;3.40;;
47519;SDS011;33252;48.122;11.538;2022-10-18T15:32:10;3.78;;;2.50;;
47519;SDS011;33252;48.122;11.538;2022-10-18T15:34:51;7.68;;;3.20;;
47519;SDS011;33252;48.122;11.538;2022-10-18T15:37:28;8.15;;;2.75;;
47519;SDS011;33252;48.122;11.538;2022-10-18T15:42:42;6.78;;;2.92;;
47519;SDS011;33252;48.122;11.538;2022-10-18T15:47:56;10.13;;;3.35;;
47519;SDS011;33252;48.122;11.538;2022-10-18T15:50:41;5.25;;;3.15;;
47519;SDS011;33252;48.122;11.538;2022-10-18T15:55:46;8.43;;;3.00;;
47519;SDS011;33252;48.122;11.538;2022-10-18T15:58:17;6.38;;;2.75;;
47519;SDS011;33252;48.122;11.538;2022-10-18T16:00:46;4.40;;;3.55;;
47519;SDS011;33252;48.122;11.538;2022-10-18T16:03:14;7.10;;;3.95;;
47519;SDS011;33252;48.122;11.538;2022-10-18T16:05:41;9.15;;;4.75;;
47519;SDS011;33252;48.122;11.538;2022-10-18T16:08:21;9.35;;;4.03;;
47519;SDS011;33252;48.122;11.538;2022-10-18T16:10:49;6.85;;;3.42;;
47519;SDS011;33252;48.122;11.538;2022-10-18T16:13:16;7.60;;;3.72;;
47519;SDS011;33252;48.122;11.538;2022-10-18T16:15:42;6.82;;;2.70;;
47519;SDS011;33252;48.122;11.538;2022-10-18T16:18:10;6.55;;;3.35;;
47519;SDS011;33252;48.122;11.538;2022-10-18T16:20:38;7.47;;;3.33;;
47519;SDS011;33252;48.122;11.538;2022-10-18T16:23:23;6.95;;;3.45;;
47519;SDS011;33252;48.122;11.538;2022-10-18T16:25:50;4.85;;;3.13;;
47519;SDS011;33252;48.122;11.538;2022-10-18T16:28:20;6.28;;;4.03;;
47519;SDS011;33252;48.122;11.538;2022-10-18T16:31:06;8.32;;;3.10;;
47519;SDS011;33252;48.122;11.538;2022-10-18T16:33:32;7.00;;;3.75;;
47519;SDS011;33252;48.122;11.538;2022-10-18T16:35:58;6.82;;;3.83;;
47519;SDS011;33252;48.122;11.538;2022-10-18T16:38:30;9.93;;;4.35;;
47519;SDS011;33252;48.122;11.538;2022-10-18T16:40:58;10.52;;;5.30;;
47519;SDS011;33252;48.122;11.538;2022-10-18T16:43:23;8.95;;;4.47;;
47519;SDS011;33252;48.122;11.538;2022-10-18T16:45:50;6.55;;;4.00;;
47519;SDS011;33252;48.122;11.538;2022-10-18T16:48:18;8.60;;;4.32;;
47519;SDS011;33252;48.122;11.538;2022-10-18T16:50:46;7.85;;;4.10;;
47519;SDS011;33252;48.122;11.538;2022-10-18T16:53:12;7.82;;;4.45;;
47519;SDS011;33252;48.122;11.538;2022-10-18T16:55:38;8.00;;;5.70;;
47519;SDS011;33252;48.122;11.538;2022-10-18T16:58:05;9.15;;;4.75;;
47519;SDS011;33252;48.122;11.538;2022-10-18T17:00:32;9.35;;;5.25;;
47519;SDS011;33252;48.122;11.538;2022-10-18T17:02:58;8.43;;;4.68;;
47519;SDS011;33252;48.122;11.538;2022-10-18T17:05:23;9.63;;;6.13;;
47519;SDS011;33252;48.122;11.538;2022-10-18T17:07:49;11.35;;;5.53;;
47519;SDS011;33252;48.122;11.538;2022-10-18T17:10:17;10.57;;;5.68;;
47519;SDS011;33252;48.122;11.538;2022-10-18T17:12:45;7.78;;;5.82;;
47519;SDS011;33252;48.122;11.538;2022-10-18T17:15:11;7.80;;;6.03;;
47519;SDS011;33252;48.122;11.538;2022-10-18T17:17:37;9.70;;;5.80;;
47519;SDS011;33252;48.122;11.538;2022-10-18T17:20:04;12.70;;;7.43;;
47519;SDS011;33252;48.122;11.538;2022-10-18T17:22:31;9.38;;;6.60;;
47519;SDS011;33252;48.122;11.538;2022-10-18T17:24:57;14.73;;;7.30;;
47519;SDS011;33252;48.122;11.538;2022-10-18T17:27:29;10.15;;;6.60;;
47519;SDS011;33252;48.122;11.538;2022-10-18T17:29:54;9.68;;;6.97;;
47519;SDS011;33252;48.122;11.538;2022-10-18T17:32:21;10.98;;;6.90;;
47519;SDS011;33252;48.122;11.538;2022-10-18T17:34:47;10.88;;;6.70;;
47519;SDS011;33252;48.122;11.538;2022-10-18T17:37:12;9.48;;;7.47;;
47519;SDS011;33252;48.122;11.538;2022-10-18T17:39:38;13.00;;;7.25;;
47519;SDS011;33252;48.122;11.538;2022-10-18T17:42:04;9.23;;;6.22;;
47519;SDS011;33252;48.122;11.538;2022-10-18T17:44:29;9.60;;;6.55;;
47519;SDS011;33252;48.122;11.538;2022-10-18T17:46:55;10.98;;;6.68;;
47519;SDS011;33252;48.122;11.538;2022-10-18T17:49:20;8.85;;;6.32;;
47519;SDS011;33252;48.122;11.538;2022-10-18T17:51:46;8.52;;;6.43;;
47519;SDS011;33252;48.122;11.538;2022-10-18T17:54:12;9.57;;;6.75;;
47519;SDS011;33252;48.122;11.538;2022-10-18T17:56:40;12.50;;;6.13;;
47519;SDS011;33252;48.122;11.538;2022-10-18T17:59:06;8.82;;;6.40;;
47519;SDS011;33252;48.122;11.538;2022-10-18T18:01:31;8.30;;;6.25;;